Time;durP1;ratioP1;P1;durP2;ratioP2;P2;SDS_P1;SDS_P2;PMS_P1;PMS_P2;Temp;Humidity;BMP_temperature;BMP_pressure;BME280_temperature;BME280_humidity;BME280_pressure;Samples;Min_cycle;Max_cycle;Signal;HPM_P1;HPM_P2
2022/08/03 00:00:24;;;;;;;2.75;2.40;;;21.90;99.90;;;;;;2074161;28;20025;-70
2022/08/03 00:01:25;;;;;;;2.47;2.28;;;21.90;99.90;;;;;;2073164;28;20026;-70
2022/08/03 00:02:26;;;;;;;5.20;2.35;;;21.90;99.90;;;;;;2073808;28;20030;-70
2022/08/03 00:03:26;;;;;;;2.75;2.15;;;21.90;99.90;;;;;;2074327;28;20036;-70
2022/08/03 00:04:27;;;;;;;2.65;1.85;;;21.90;99.90;;;;;;2075715;28;20032;-70
2022/08/03 00:05:27;;;;;;;3.45;2.38;;;21.90;99.90;;;;;;2073496;28;20469;-70
2022/08/03 00:06:28;;;;;;;2.80;2.47;;;21.90;99.90;;;;;;2071691;28;21443;-70
2022/08/03 00:07:29;;;;;;;2.60;2.10;;;21.90;99.90;;;;;;2073025;28;20022;-70
2022/08/03 00:08:29;;;;;;;3.78;2.42;;;21.90;99.90;;;;;;2073531;28;20025;-70
2022/08/03 00:09:30;;;;;;;2.17;2.08;;;21.90;99.90;;;;;;2074076;28;20022;-70
2022/08/03 00:10:31;;;;;;;3.15;2.10;;;21.80;99.90;;;;;;2074984;28;20080;-70
2022/08/03 00:11:32;;;;;;;4.05;2.20;;;21.90;99.90;;;;;;2076235;28;20420;-70
2022/08/03 00:12:35;;;;;;;3.65;2.35;;;21.90;99.90;;;;;;2074661;28;20026;-70
2022/08/03 00:13:35;;;;;;;2.72;2.22;;;21.80;99.90;;;;;;2074077;28;20014;-70
2022/08/03 00:14:36;;;;;;;2.95;2.00;;;21.90;99.90;;;;;;2072661;28;20024;-70
2022/08/03 00:15:37;;;;;;;3.22;2.25;;;21.80;99.90;;;;;;2073470;28;20045;-70
2022/08/03 00:16:38;;;;;;;3.20;2.35;;;21.80;99.90;;;;;;2072304;28;20041;-70
2022/08/03 00:17:38;;;;;;;7.45;2.70;;;21.80;99.90;;;;;;2076069;28;20060;-70
2022/08/03 00:18:39;;;;;;;4.43;2.35;;;21.80;99.90;;;;;;2073236;28;20072;-70
2022/08/03 00:19:40;;;;;;;2.53;2.20;;;21.80;99.90;;;;;;2075498;28;20029;-70
2022/08/03 00:20:41;;;;;;;2.92;2.00;;;21.80;99.90;;;;;;2073249;28;20029;-70
2022/08/03 00:21:41;;;;;;;2.60;2.03;;;21.80;99.90;;;;;;2074412;28;20253;-70
2022/08/03 00:22:42;;;;;;;2.13;1.98;;;21.80;99.90;;;;;;2073305;28;20030;-70
2022/08/03 00:23:42;;;;;;;3.65;2.20;;;21.80;99.90;;;;;;2073027;28;20030;-70
2022/08/03 00:24:43;;;;;;;3.90;2.28;;;21.80;99.90;;;;;;2072578;28;20050;-69
2022/08/03 00:25:43;;;;;;;2.72;2.40;;;21.80;99.90;;;;;;2073139;28;20033;-69
2022/08/03 00:26:44;;;;;;;5.43;2.47;;;21.80;99.90;;;;;;2075667;28;20080;-69
2022/08/03 00:27:45;;;;;;;4.57;2.05;;;21.80;99.90;;;;;;2075107;28;20093;-69
2022/08/03 00:28:45;;;;;;;3.58;2.50;;;21.80;99.90;;;;;;2073762;28;20029;-70
2022/08/03 00:29:46;;;;;;;3.65;2.33;;;21.70;99.90;;;;;;2074986;28;20061;-70
2022/08/03 00:30:46;;;;;;;2.55;2.10;;;21.70;99.90;;;;;;2073784;28;20448;-70
2022/08/03 00:31:47;;;;;;;2.10;1.92;;;21.70;99.90;;;;;;2073178;28;20022;-70
2022/08/03 00:32:48;;;;;;;3.38;2.38;;;21.70;99.90;;;;;;2072654;28;20465;-70
2022/08/03 00:33:48;;;;;;;2.28;1.58;;;21.70;99.90;;;;;;2076081;28;20044;-70
2022/08/03 00:34:49;;;;;;;2.92;2.00;;;21.70;99.90;;;;;;2074505;28;20032;-70
2022/08/03 00:35:50;;;;;;;2.17;1.98;;;21.70;99.90;;;;;;2073490;28;20473;-70
2022/08/03 00:36:51;;;;;;;2.97;2.40;;;21.70;99.90;;;;;;2074822;28;20022;-70
2022/08/03 00:37:52;;;;;;;2.92;2.50;;;21.70;99.90;;;;;;2074215;28;20029;-70
2022/08/03 00:38:52;;;;;;;2.58;1.90;;;21.70;99.90;;;;;;2075439;28;20053;-70
2022/08/03 00:39:53;;;;;;;2.92;1.83;;;21.70;99.90;;;;;;2074028;28;20029;-70
2022/08/03 00:40:54;;;;;;;4.03;2.30;;;21.70;99.90;;;;;;2073895;28;20478;-70
2022/08/03 00:41:55;;;;;;;4.70;2.40;;;21.70;99.90;;;;;;2074120;28;20029;-70
2022/08/03 00:43:03;;;;;;;2.30;2.10;;;21.70;99.90;;;;;;2073441;28;20018;-70
2022/08/03 00:44:04;;;;;;;3.38;2.15;;;21.60;99.90;;;;;;2075289;28;20441;-70
2022/08/03 00:45:05;;;;;;;3.60;2.15;;;21.60;99.90;;;;;;2073363;28;20022;-70
2022/08/03 00:46:05;;;;;;;2.30;2.17;;;21.60;99.90;;;;;;2075868;28;20018;-70
2022/08/03 00:47:07;;;;;;;2.17;2.08;;;21.60;99.90;;;;;;2072265;28;20091;-70
2022/08/03 00:48:10;;;;;;;2.42;2.00;;;21.60;99.90;;;;;;2073910;28;20080;-70
2022/08/03 00:49:11;;;;;;;2.70;1.95;;;21.60;99.90;;;;;;2074281;28;20095;-70
2022/08/03 00:50:12;;;;;;;3.42;2.33;;;21.60;99.90;;;;;;2073847;28;20026;-70
2022/08/03 00:51:13;;;;;;;2.58;2.13;;;21.60;99.90;;;;;;2073497;28;20037;-70
2022/08/03 00:52:15;;;;;;;3.67;2.20;;;21.60;99.90;;;;;;2074664;28;20477;-70
2022/08/03 00:53:16;;;;;;;2.50;2.08;;;21.60;99.90;;;;;;2072260;28;20093;-70
2022/08/03 00:54:18;;;;;;;2.33;2.13;;;21.50;99.90;;;;;;2075800;28;20244;-70
2022/08/03 00:55:20;;;;;;;3.20;2.40;;;21.60;99.90;;;;;;2071437;28;20405;-70
2022/08/03 00:56:20;;;;;;;2.72;2.05;;;21.60;99.90;;;;;;2073145;28;20029;-70
2022/08/03 00:57:21;;;;;;;2.80;2.10;;;21.50;99.90;;;;;;2074022;28;20060;-70
2022/08/03 00:58:23;;;;;;;4.18;2.28;;;21.50;99.90;;;;;;2073600;28;20030;-70
2022/08/03 00:59:23;;;;;;;5.00;1.90;;;21.50;99.90;;;;;;2073323;28;20021;-70
2022/08/03 01:00:26;;;;;;;4.80;2.40;;;21.50;99.90;;;;;;2074069;28;20033;-70
2022/08/03 01:01:26;;;;;;;3.97;2.20;;;21.50;99.90;;;;;;2076017;28;20036;-70
2022/08/03 01:02:30;;;;;;;2.17;1.98;;;21.50;99.90;;;;;;2073582;28;20029;-70
2022/08/03 01:03:30;;;;;;;5.13;2.00;;;21.50;99.90;;;;;;2072473;28;20025;-70
2022/08/03 01:04:31;;;;;;;2.30;2.08;;;21.50;99.90;;;;;;2073979;28;20056;-70
2022/08/03 01:05:54;;;;;;;3.20;2.60;;;21.50;99.90;;;;;;2074034;28;20048;-70
2022/08/03 01:07:13;;;;;;;5.03;2.35;;;21.50;99.90;;;;;;2073878;28;20045;-70
2022/08/03 01:08:23;;;;;;;4.35;2.03;;;21.40;99.90;;;;;;2074532;28;20017;-70
2022/08/03 01:09:36;;;;;;;2.63;2.20;;;21.40;99.90;;;;;;2074704;28;20068;-70
2022/08/03 01:10:52;;;;;;;3.20;2.00;;;21.40;99.90;;;;;;2073855;28;20665;-70
2022/08/03 01:12:05;;;;;;;7.43;2.40;;;21.40;99.90;;;;;;2073283;28;20018;-70
2022/08/03 01:13:26;;;;;;;3.22;2.13;;;21.40;99.90;;;;;;2071269;28;20573;-70
2022/08/03 01:14:37;;;;;;;3.10;2.17;;;21.30;99.90;;;;;;2074651;28;20022;-70
2022/08/03 01:15:39;;;;;;;6.50;2.28;;;21.30;99.90;;;;;;2073799;28;20018;-70
2022/08/03 01:17:00;;;;;;;3.95;2.17;;;21.30;99.90;;;;;;2073814;28;20621;-70
2022/08/03 01:18:12;;;;;;;1.70;1.60;;;21.30;99.90;;;;;;2074300;28;20056;-70
2022/08/03 01:19:37;;;;;;;2.92;2.05;;;21.30;99.90;;;;;;2073528;28;20030;-70
2022/08/03 01:20:42;;;;;;;2.50;1.83;;;21.30;99.90;;;;;;2070479;28;20018;-70
2022/08/03 01:22:16;;;;;;;2.58;1.90;;;21.30;99.90;;;;;;2074561;28;20026;-70
2022/08/03 01:23:32;;;;;;;3.78;2.03;;;21.30;99.90;;;;;;2074244;28;20025;-70
2022/08/03 01:24:54;;;;;;;2.67;2.05;;;21.20;99.90;;;;;;2071687;28;20105;-70
2022/08/03 01:26:22;;;;;;;2.15;2.00;;;21.20;99.90;;;;;;2073142;28;20042;-70
2022/08/03 01:27:36;;;;;;;5.82;1.95;;;21.20;99.90;;;;;;2073620;28;20647;-69
2022/08/03 01:28:58;;;;;;;2.00;1.90;;;21.20;99.90;;;;;;2069781;28;20033;-69
2022/08/03 01:30:09;;;;;;;2.28;2.00;;;21.10;99.90;;;;;;2075184;28;20022;-69
2022/08/03 01:31:12;;;;;;;5.63;1.90;;;21.10;99.90;;;;;;2072881;28;20374;-69
2022/08/03 01:32:18;;;;;;;2.72;2.00;;;21.10;99.90;;;;;;2072950;28;20029;-69
2022/08/03 01:33:27;;;;;;;2.10;2.00;;;21.10;99.90;;;;;;2074326;28;20010;-69
2022/08/03 01:34:40;;;;;;;5.45;2.40;;;21.20;99.90;;;;;;2073961;28;20048;-69
2022/08/03 01:35:45;;;;;;;1.95;1.85;;;21.10;99.90;;;;;;2074827;28;20018;-69
2022/08/03 01:36:51;;;;;;;2.42;2.13;;;21.10;99.90;;;;;;2075256;28;20037;-69
2022/08/03 01:37:56;;;;;;;2.45;2.25;;;21.10;99.90;;;;;;2074713;28;20030;-69
2022/08/03 01:39:00;;;;;;;3.55;1.88;;;21.10;99.90;;;;;;2072803;28;20741;-69
2022/08/03 01:40:03;;;;;;;2.90;2.35;;;21.10;99.90;;;;;;2073778;28;20022;-69
2022/08/03 01:41:09;;;;;;;3.38;2.47;;;21.10;99.90;;;;;;2074635;28;20030;-69
2022/08/03 01:42:12;;;;;;;4.60;2.00;;;21.10;99.90;;;;;;2072163;28;20426;-70
2022/08/03 01:43:16;;;;;;;4.45;2.33;;;21.10;99.90;;;;;;2069902;28;20053;-70
2022/08/03 01:44:19;;;;;;;3.85;2.03;;;21.10;99.90;;;;;;2074676;28;20106;-69
2022/08/03 01:45:21;;;;;;;3.15;2.10;;;21.10;99.90;;;;;;2072673;28;20018;-69
2022/08/03 01:46:24;;;;;;;2.90;2.40;;;21.10;99.90;;;;;;2073770;28;20028;-69
2022/08/03 01:47:26;;;;;;;3.40;2.00;;;21.10;99.90;;;;;;2072885;28;20026;-69
2022/08/03 01:48:27;;;;;;;2.40;1.90;;;21.10;99.90;;;;;;2083607;28;20021;-69
2022/08/03 01:49:30;;;;;;;2.80;2.38;;;21.10;99.90;;;;;;2093453;28;20055;-69
2022/08/03 01:50:33;;;;;;;3.00;1.67;;;21.10;99.90;;;;;;2075731;28;20109;-69
2022/08/03 01:51:34;;;;;;;4.13;1.80;;;21.10;99.90;;;;;;2072746;28;20010;-69
2022/08/03 01:52:38;;;;;;;4.32;2.33;;;21.10;99.90;;;;;;2077964;28;20476;-69
2022/08/03 01:53:43;;;;;;;2.72;2.03;;;21.10;99.90;;;;;;2071986;28;20023;-69
2022/08/03 01:54:47;;;;;;;4.05;2.38;;;21.10;99.90;;;;;;2073269;28;20018;-70
2022/08/03 01:55:52;;;;;;;2.75;1.80;;;21.00;99.90;;;;;;2075099;28;20033;-70
2022/08/03 01:56:55;;;;;;;3.58;2.28;;;21.10;99.90;;;;;;2073630;28;20446;-70
2022/08/03 01:57:58;;;;;;;4.22;2.20;;;21.00;99.90;;;;;;2075276;28;20049;-70
2022/08/03 01:59:01;;;;;;;3.28;1.85;;;21.00;99.90;;;;;;2077919;28;20046;-69
2022/08/03 02:00:03;;;;;;;4.00;1.90;;;21.00;99.90;;;;;;2072745;28;20028;-69
2022/08/03 02:01:05;;;;;;;3.05;2.30;;;21.00;99.90;;;;;;2072784;28;20017;-69
2022/08/03 02:02:08;;;;;;;2.53;2.08;;;21.00;99.90;;;;;;2074333;28;20025;-69
2022/08/03 02:03:12;;;;;;;4.20;2.20;;;21.00;99.90;;;;;;2073818;28;20125;-69
2022/08/03 02:04:16;;;;;;;2.47;2.00;;;21.00;99.90;;;;;;2076759;28;20033;-69
2022/08/03 02:05:19;;;;;;;3.55;2.38;;;21.00;99.90;;;;;;2075119;28;20922;-69
2022/08/03 02:06:21;;;;;;;3.03;2.10;;;21.00;99.90;;;;;;2072412;28;20033;-69
2022/08/03 02:07:24;;;;;;;2.28;2.08;;;21.00;99.90;;;;;;2073683;28;20076;-69
2022/08/03 02:08:27;;;;;;;3.55;2.20;;;21.00;99.90;;;;;;2073395;28;20041;-69
2022/08/03 02:09:28;;;;;;;2.42;1.77;;;21.00;99.90;;;;;;2074238;28;20040;-69
2022/08/03 02:10:31;;;;;;;6.05;2.50;;;21.00;99.90;;;;;;2077705;28;20370;-70
2022/08/03 02:11:34;;;;;;;3.65;2.38;;;21.00;99.90;;;;;;2072570;28;20028;-70
2022/08/03 02:12:36;;;;;;;3.03;2.10;;;21.00;99.90;;;;;;2071914;28;20022;-70
2022/08/03 02:13:38;;;;;;;3.33;2.17;;;21.00;99.90;;;;;;2076450;28;20022;-70
2022/08/03 02:14:42;;;;;;;2.00;1.85;;;21.00;99.90;;;;;;2076346;28;20063;-70
2022/08/03 02:15:43;;;;;;;3.63;2.28;;;21.00;99.90;;;;;;2072635;28;20029;-70
2022/08/03 02:16:44;;;;;;;4.05;2.03;;;21.00;99.90;;;;;;2075464;28;20456;-70
2022/08/03 02:17:47;;;;;;;2.58;2.10;;;21.00;99.90;;;;;;2077305;28;20034;-70
2022/08/03 02:18:48;;;;;;;3.50;2.28;;;21.00;99.90;;;;;;2076096;28;20037;-70
2022/08/03 02:19:50;;;;;;;3.17;2.05;;;21.00;99.90;;;;;;2076421;28;20056;-70
2022/08/03 02:20:51;;;;;;;4.25;2.33;;;21.00;99.90;;;;;;2072957;28;20022;-70
2022/08/03 02:21:52;;;;;;;2.83;2.10;;;21.00;99.90;;;;;;2072837;28;20141;-70
2022/08/03 02:22:53;;;;;;;2.25;1.92;;;21.00;99.90;;;;;;2075097;28;20502;-70
2022/08/03 02:23:54;;;;;;;2.65;1.80;;;21.00;99.90;;;;;;2072823;28;20099;-70
2022/08/03 02:24:55;;;;;;;2.22;2.03;;;21.00;99.90;;;;;;2071004;28;20021;-70
2022/08/03 02:25:59;;;;;;;3.38;2.20;;;21.00;99.90;;;;;;2072284;28;20029;-70
2022/08/03 02:27:02;;;;;;;3.25;1.90;;;21.00;99.90;;;;;;2074131;28;20022;-70
2022/08/03 02:28:10;;;;;;;2.83;2.38;;;21.00;99.90;;;;;;2073325;28;20393;-70
2022/08/03 02:29:14;;;;;;;4.43;2.50;;;21.00;99.90;;;;;;2077573;28;20122;-70
2022/08/03 02:30:15;;;;;;;3.97;2.10;;;21.00;99.90;;;;;;2078317;28;20014;-70
2022/08/03 02:31:21;;;;;;;2.88;2.30;;;20.90;99.90;;;;;;2074970;28;20026;-70
2022/08/03 02:32:29;;;;;;;6.50;2.70;;;20.90;99.90;;;;;;2076238;28;20505;-70
2022/08/03 02:33:34;;;;;;;2.13;1.90;;;20.90;99.90;;;;;;2073964;28;20053;-70
2022/08/03 02:34:36;;;;;;;3.22;2.00;;;20.90;99.90;;;;;;2073446;28;20025;-70
2022/08/03 02:35:39;;;;;;;2.53;1.90;;;20.90;99.90;;;;;;2075696;28;20040;-70
2022/08/03 02:36:44;;;;;;;3.33;2.35;;;20.90;99.90;;;;;;2076309;28;20048;-70
2022/08/03 02:37:50;;;;;;;3.55;2.10;;;20.90;99.90;;;;;;2075755;28;20029;-70
2022/08/03 02:38:57;;;;;;;4.15;2.50;;;20.90;99.90;;;;;;2076686;28;20033;-70
2022/08/03 02:40:01;;;;;;;6.63;1.98;;;20.90;99.90;;;;;;2074617;28;20064;-70
2022/08/03 02:41:07;;;;;;;1.88;1.58;;;20.90;99.90;;;;;;2073980;28;20026;-70
2022/08/03 02:42:10;;;;;;;2.72;2.03;;;20.90;99.90;;;;;;2073940;28;20107;-70
2022/08/03 02:43:16;;;;;;;2.60;2.15;;;20.90;99.90;;;;;;2073435;28;20033;-70
2022/08/03 02:44:25;;;;;;;2.30;2.10;;;20.90;99.90;;;;;;2073888;28;20029;-70
2022/08/03 02:45:27;;;;;;;3.55;2.30;;;20.90;99.90;;;;;;2075284;28;20018;-70
2022/08/03 02:46:32;;;;;;;2.72;2.20;;;20.90;99.90;;;;;;2076343;28;20362;-70
2022/08/03 02:47:36;;;;;;;2.60;1.83;;;20.80;99.90;;;;;;2074575;28;20028;-70
2022/08/03 02:48:39;;;;;;;2.35;2.08;;;20.80;99.90;;;;;;2075004;28;20022;-70
2022/08/03 02:49:42;;;;;;;2.17;1.88;;;20.80;99.90;;;;;;2074193;28;20029;-70
2022/08/03 02:50:44;;;;;;;2.33;1.90;;;20.80;99.90;;;;;;2072301;28;20022;-70
2022/08/03 02:51:47;;;;;;;3.15;2.22;;;20.80;99.90;;;;;;2073745;28;20026;-70
2022/08/03 02:52:49;;;;;;;2.55;2.17;;;20.80;99.90;;;;;;2074053;28;20404;-70
2022/08/03 02:53:51;;;;;;;2.30;2.10;;;20.80;99.90;;;;;;2074150;28;20482;-70
2022/08/03 02:54:55;;;;;;;2.55;1.98;;;20.80;99.90;;;;;;2073982;28;20079;-70
2022/08/03 02:55:57;;;;;;;2.90;2.00;;;20.70;99.90;;;;;;2074704;28;20428;-70
2022/08/03 02:56:59;;;;;;;2.35;2.15;;;20.70;99.90;;;;;;2074954;28;20033;-70
2022/08/03 02:58:01;;;;;;;2.45;2.13;;;20.70;99.90;;;;;;2074948;28;20029;-70
2022/08/03 02:59:03;;;;;;;3.78;1.98;;;20.70;99.90;;;;;;2073336;28;20068;-70
2022/08/03 03:00:06;;;;;;;4.57;2.42;;;20.70;99.90;;;;;;2072408;28;20026;-70
2022/08/03 03:01:06;;;;;;;4.90;2.10;;;20.70;99.90;;;;;;2073740;28;20018;-70
2022/08/03 03:02:08;;;;;;;2.58;2.28;;;20.70;99.90;;;;;;2074828;28;20108;-70
2022/08/03 03:03:10;;;;;;;2.30;2.10;;;20.70;99.90;;;;;;2075189;28;20067;-70
2022/08/03 03:04:11;;;;;;;2.45;2.25;;;20.60;99.90;;;;;;2073011;28;20041;-70
2022/08/03 03:05:13;;;;;;;6.03;2.10;;;20.60;99.90;;;;;;2075345;28;20033;-70
2022/08/03 03:06:18;;;;;;;2.15;1.95;;;20.60;99.90;;;;;;2073755;28;20429;-70
2022/08/03 03:07:19;;;;;;;4.63;2.60;;;20.60;99.90;;;;;;2073317;28;20022;-69
2022/08/03 03:08:21;;;;;;;2.67;2.47;;;20.60;99.90;;;;;;2073688;28;20089;-69
2022/08/03 03:09:22;;;;;;;2.72;2.30;;;20.60;99.90;;;;;;2074272;28;20022;-69
2022/08/03 03:10:24;;;;;;;2.80;2.15;;;20.60;99.90;;;;;;2077490;28;20037;-69
2022/08/03 03:11:25;;;;;;;3.55;2.05;;;20.50;99.90;;;;;;2077554;28;20377;-69
2022/08/03 03:12:26;;;;;;;3.17;2.60;;;20.60;99.90;;;;;;2075492;28;20096;-69
2022/08/03 03:13:29;;;;;;;2.38;2.17;;;20.60;99.90;;;;;;2075499;28;20131;-69
2022/08/03 03:14:31;;;;;;;3.17;1.70;;;20.50;99.90;;;;;;2074982;28;20101;-69
2022/08/03 03:15:34;;;;;;;3.15;2.40;;;20.50;99.90;;;;;;2074063;28;20010;-69
2022/08/03 03:16:35;;;;;;;2.60;1.95;;;20.50;99.90;;;;;;2073199;28;20026;-69
2022/08/03 03:17:37;;;;;;;2.97;2.50;;;20.50;99.90;;;;;;2074989;28;20026;-69
2022/08/03 03:18:39;;;;;;;3.10;2.40;;;20.50;99.90;;;;;;2071732;28;20406;-69
2022/08/03 03:19:41;;;;;;;3.03;2.08;;;20.50;99.90;;;;;;2075263;28;20021;-69
2022/08/03 03:20:44;;;;;;;5.97;2.35;;;20.50;99.90;;;;;;2076106;28;20041;-69
2022/08/03 03:21:45;;;;;;;4.65;2.70;;;20.50;99.90;;;;;;2074161;28;20564;-69
2022/08/03 03:22:48;;;;;;;2.70;1.85;;;20.50;99.90;;;;;;2076136;28;20525;-69
2022/08/03 03:23:50;;;;;;;4.22;2.42;;;20.40;99.90;;;;;;2073351;28;20030;-69
2022/08/03 03:24:53;;;;;;;4.10;2.00;;;20.50;99.90;;;;;;2071645;28;20025;-69
2022/08/03 03:25:57;;;;;;;4.22;2.20;;;20.40;99.90;;;;;;2075214;28;20062;-69
2022/08/03 03:26:58;;;;;;;3.78;1.95;;;20.40;99.90;;;;;;2074366;28;20076;-69
2022/08/03 03:27:59;;;;;;;4.72;2.45;;;20.40;99.90;;;;;;2076452;28;20100;-69
2022/08/03 03:29:01;;;;;;;3.90;2.30;;;20.40;99.90;;;;;;2077102;28;20519;-69
2022/08/03 03:30:03;;;;;;;5.63;2.30;;;20.40;99.90;;;;;;2075623;28;20493;-69
2022/08/03 03:31:05;;;;;;;4.43;2.58;;;20.40;99.90;;;;;;2073744;28;20018;-69
2022/08/03 03:32:06;;;;;;;4.30;2.47;;;20.40;99.90;;;;;;2074695;28;20049;-69
2022/08/03 03:33:06;;;;;;;2.13;1.92;;;20.40;99.90;;;;;;2073841;28;20473;-69
2022/08/03 03:34:07;;;;;;;2.42;2.05;;;20.30;99.90;;;;;;2074079;28;20021;-70
2022/08/03 03:35:09;;;;;;;3.10;2.45;;;20.40;99.90;;;;;;2074316;28;20037;-70
2022/08/03 03:36:09;;;;;;;2.83;2.10;;;20.40;99.90;;;;;;2076575;28;20478;-70
2022/08/03 03:37:10;;;;;;;1.75;1.65;;;20.30;99.90;;;;;;2075366;28;20576;-70
2022/08/03 03:38:11;;;;;;;2.25;2.03;;;20.30;99.90;;;;;;2074461;28;20026;-70
2022/08/03 03:39:12;;;;;;;2.70;1.90;;;20.30;99.90;;;;;;2073888;28;20473;-70
2022/08/03 03:40:13;;;;;;;7.63;2.85;;;20.30;99.90;;;;;;2074827;28;20080;-70
2022/08/03 03:41:13;;;;;;;3.28;1.98;;;20.30;99.90;;;;;;2072626;28;20018;-70
2022/08/03 03:42:14;;;;;;;5.80;2.00;;;20.30;99.90;;;;;;2075818;28;20079;-70
2022/08/03 03:43:17;;;;;;;4.75;2.33;;;20.30;99.90;;;;;;2075015;28;20026;-70
2022/08/03 03:44:18;;;;;;;2.60;2.33;;;20.20;99.90;;;;;;2074810;28;20030;-70
2022/08/03 03:45:20;;;;;;;2.88;2.17;;;20.20;99.90;;;;;;2073995;28;20103;-70
2022/08/03 03:46:21;;;;;;;2.75;2.53;;;20.20;99.90;;;;;;2074552;28;20509;-70
2022/08/03 03:47:22;;;;;;;3.50;2.40;;;20.20;99.90;;;;;;2068913;28;20434;-70
2022/08/03 03:48:25;;;;;;;4.32;2.53;;;20.20;99.90;;;;;;2068998;28;20042;-70
2022/08/03 03:49:25;;;;;;;4.75;2.58;;;20.20;99.90;;;;;;2074126;28;20013;-70
2022/08/03 03:50:27;;;;;;;3.15;2.20;;;20.20;99.90;;;;;;2075036;28;20025;-70
2022/08/03 03:51:27;;;;;;;5.40;2.90;;;20.20;99.90;;;;;;2074551;28;20068;-70
2022/08/03 03:52:28;;;;;;;5.00;2.45;;;20.20;99.90;;;;;;2076257;28;20100;-70
2022/08/03 03:53:29;;;;;;;3.30;2.67;;;20.20;99.90;;;;;;2075134;28;20580;-70
2022/08/03 03:54:43;;;;;;;3.05;2.13;;;20.20;99.90;;;;;;2075172;28;20018;-70
2022/08/03 03:55:43;;;;;;;8.77;2.60;;;20.20;99.90;;;;;;2073186;28;20420;-70
2022/08/03 03:56:44;;;;;;;6.63;2.50;;;20.10;99.90;;;;;;2073366;28;20030;-70
2022/08/03 03:57:45;;;;;;;3.47;2.25;;;20.10;99.90;;;;;;2075217;28;20052;-70
2022/08/03 03:58:45;;;;;;;5.38;2.40;;;20.10;99.90;;;;;;2075794;28;20049;-70
2022/08/03 03:59:46;;;;;;;4.20;2.72;;;20.10;99.90;;;;;;2075582;28;20026;-70
2022/08/03 04:00:46;;;;;;;3.63;2.65;;;20.10;99.90;;;;;;2072281;28;20030;-70
2022/08/03 04:01:47;;;;;;;3.30;2.60;;;20.10;99.90;;;;;;2076530;28;20045;-70
2022/08/03 04:02:48;;;;;;;4.75;2.38;;;20.10;99.90;;;;;;2075535;28;20033;-70
2022/08/03 04:03:48;;;;;;;6.35;2.92;;;20.10;99.90;;;;;;2076665;28;20029;-70
2022/08/03 04:11:36;;;;;;;7.60;2.47;;;20.00;99.90;;;;;;2073834;28;20030;-70
2022/08/03 04:12:38;;;;;;;4.72;2.55;;;20.00;99.90;;;;;;2071258;28;20025;-70
2022/08/03 04:13:47;;;;;;;3.30;2.22;;;20.00;99.90;;;;;;2072596;28;20017;-70
2022/08/03 04:14:49;;;;;;;4.63;2.30;;;20.00;99.90;;;;;;2073328;28;20477;-70
2022/08/03 04:15:51;;;;;;;2.70;2.45;;;19.90;99.90;;;;;;2074695;28;20033;-70
2022/08/03 04:17:03;;;;;;;3.92;2.33;;;20.00;99.90;;;;;;2075739;28;20714;-70
2022/08/03 04:18:07;;;;;;;10.18;2.90;;;20.00;99.90;;;;;;2074254;28;20033;-70
2022/08/03 04:19:12;;;;;;;4.25;2.50;;;19.90;99.90;;;;;;2072692;28;20018;-70
2022/08/03 04:20:15;;;;;;;5.93;2.70;;;20.00;99.90;;;;;;2076359;28;20038;-70
2022/08/03 04:21:18;;;;;;;3.80;2.15;;;20.00;99.90;;;;;;2073036;28;20040;-69
2022/08/03 04:22:24;;;;;;;3.10;2.17;;;20.00;99.90;;;;;;2074629;28;20073;-69
2022/08/03 04:23:27;;;;;;;3.45;2.78;;;20.00;99.90;;;;;;2074228;28;20105;-69
2022/08/03 04:24:33;;;;;;;4.95;2.70;;;20.00;99.90;;;;;;2072443;28;20026;-69
2022/08/03 04:25:36;;;;;;;3.05;2.55;;;20.00;99.90;;;;;;2074494;28;20038;-69
2022/08/03 04:26:40;;;;;;;2.97;2.28;;;20.00;99.90;;;;;;2073883;28;20025;-69
2022/08/03 04:27:42;;;;;;;4.32;2.50;;;20.00;99.90;;;;;;2075820;28;20021;-69
2022/08/03 04:28:45;;;;;;;2.70;2.33;;;20.00;99.90;;;;;;2070122;28;20024;-69
2022/08/03 04:29:50;;;;;;;3.08;2.47;;;19.90;99.90;;;;;;2073864;28;20022;-69
2022/08/03 04:30:52;;;;;;;3.60;2.35;;;19.90;99.90;;;;;;2075865;28;20036;-69
2022/08/03 04:31:55;;;;;;;4.32;2.55;;;19.90;99.90;;;;;;2073786;28;20026;-69
2022/08/03 04:32:56;;;;;;;6.32;3.08;;;19.90;99.90;;;;;;2075336;28;20084;-69
2022/08/03 04:33:58;;;;;;;4.35;2.58;;;20.00;99.90;;;;;;2075762;28;20477;-69
2022/08/03 04:34:59;;;;;;;4.80;2.72;;;20.00;99.90;;;;;;2072349;28;20112;-69
2022/08/03 04:36:03;;;;;;;3.92;2.80;;;20.00;99.90;;;;;;2074859;28;20045;-69
2022/08/03 04:37:13;;;;;;;2.70;2.50;;;19.90;99.90;;;;;;2073251;28;20072;-69
2022/08/03 04:38:15;;;;;;;;;;;20.00;99.90;;;;;;2074896;28;20030;-69
2022/08/03 04:39:24;;;;;;;4.00;2.97;;;19.90;99.90;;;;;;2077004;28;19917;-69
2022/08/03 04:40:32;;;;;;;4.30;2.65;;;19.90;99.90;;;;;;2076390;28;20080;-69
2022/08/03 04:41:34;;;;;;;3.25;2.85;;;19.90;99.90;;;;;;2074439;28;20022;-69
2022/08/03 04:42:37;;;;;;;3.75;2.70;;;19.90;99.90;;;;;;2073878;28;20022;-69
2022/08/03 04:43:40;;;;;;;6.50;2.72;;;20.00;99.90;;;;;;2073874;28;20014;-69
2022/08/03 04:44:42;;;;;;;4.35;2.63;;;20.00;99.90;;;;;;2073912;28;20026;-69
2022/08/03 04:45:46;;;;;;;3.55;3.25;;;20.00;99.90;;;;;;2076631;28;20026;-69
2022/08/03 04:46:47;;;;;;;4.35;2.80;;;20.00;99.90;;;;;;2072779;28;20647;-69
2022/08/03 04:47:49;;;;;;;3.85;2.60;;;20.00;99.90;;;;;;2075802;28;20400;-69
2022/08/03 04:48:49;;;;;;;4.38;2.55;;;20.00;99.90;;;;;;2075776;28;20020;-69
2022/08/03 04:49:51;;;;;;;6.05;2.70;;;20.00;99.90;;;;;;2074902;28;20029;-69
2022/08/03 04:50:53;;;;;;;4.22;2.60;;;20.10;99.90;;;;;;2077899;28;20014;-69
2022/08/03 04:51:54;;;;;;;3.78;2.85;;;20.10;99.90;;;;;;2078787;28;20041;-69
2022/08/03 04:52:54;;;;;;;4.85;2.92;;;20.10;99.90;;;;;;2076683;28;20497;-69
2022/08/03 04:53:55;;;;;;;4.05;2.92;;;20.10;99.90;;;;;;2073971;28;20043;-69
2022/08/03 04:54:56;;;;;;;4.63;2.90;;;20.10;99.90;;;;;;2073480;28;20041;-69
2022/08/03 04:56:04;;;;;;;4.22;2.80;;;20.10;99.90;;;;;;2076234;28;20058;-69
2022/08/03 04:57:05;;;;;;;3.88;2.78;;;20.20;99.90;;;;;;2073274;28;20116;-69
2022/08/03 04:58:05;;;;;;;4.72;2.72;;;20.20;99.90;;;;;;2077089;28;20030;-69
2022/08/03 04:59:06;;;;;;;6.13;3.00;;;20.20;99.90;;;;;;2075105;28;20453;-69
2022/08/03 05:00:07;;;;;;;3.03;2.70;;;20.20;99.90;;;;;;2076689;28;20037;-69
2022/08/03 05:01:08;;;;;;;3.22;2.92;;;20.30;99.90;;;;;;2074085;28;20481;-69
2022/08/03 05:02:08;;;;;;;3.33;2.72;;;20.30;99.90;;;;;;2072392;28;20104;-69
2022/08/03 05:03:09;;;;;;;4.43;2.72;;;20.40;99.90;;;;;;2076747;28;20403;-70
2022/08/03 05:04:10;;;;;;;4.93;3.08;;;20.40;99.90;;;;;;2075848;28;20512;-70
2022/08/03 05:05:10;;;;;;;5.93;2.50;;;20.40;99.90;;;;;;2075154;28;20477;-70
2022/08/03 05:06:11;;;;;;;3.97;2.70;;;20.50;99.90;;;;;;2073329;28;20026;-70
2022/08/03 05:07:13;;;;;;;6.40;2.60;;;20.60;99.90;;;;;;2073320;28;20108;-70
2022/08/03 05:08:13;;;;;;;4.07;3.05;;;20.60;99.90;;;;;;2073204;28;20037;-70
2022/08/03 05:09:14;;;;;;;3.97;2.60;;;20.70;99.90;;;;;;2072795;28;20465;-70
2022/08/03 05:10:15;;;;;;;3.28;2.58;;;20.80;99.90;;;;;;2073098;28;20025;-70
2022/08/03 05:11:16;;;;;;;3.28;2.42;;;20.90;99.90;;;;;;2072109;28;20145;-71
2022/08/03 05:12:17;;;;;;;3.40;2.47;;;20.90;99.90;;;;;;2076269;28;20097;-70
2022/08/03 05:13:17;;;;;;;5.25;2.08;;;21.00;99.90;;;;;;2073552;28;20035;-70
2022/08/03 05:14:18;;;;;;;3.30;2.78;;;21.10;99.90;;;;;;2065719;28;20018;-70
2022/08/03 05:15:19;;;;;;;2.60;2.40;;;21.20;99.90;;;;;;2075564;28;20104;-70
2022/08/03 05:16:19;;;;;;;4.32;2.88;;;21.30;99.90;;;;;;2072162;28;20018;-70
2022/08/03 05:17:20;;;;;;;2.78;2.30;;;21.40;99.90;;;;;;2073613;28;20083;-70
2022/08/03 05:18:20;;;;;;;3.60;2.17;;;21.50;99.90;;;;;;2072488;28;20026;-70
2022/08/03 05:19:21;;;;;;;4.57;2.50;;;21.60;99.90;;;;;;2072622;28;20021;-70
2022/08/03 05:20:22;;;;;;;4.32;2.63;;;21.70;99.90;;;;;;2076493;28;20029;-70
2022/08/03 05:21:22;;;;;;;5.00;2.63;;;21.70;99.90;;;;;;2077780;28;20049;-70
2022/08/03 05:22:23;;;;;;;3.45;2.20;;;21.80;99.90;;;;;;2074690;28;20387;-70
2022/08/03 05:23:23;;;;;;;3.08;2.40;;;21.90;99.90;;;;;;2072845;28;20918;-70
2022/08/03 05:24:24;;;;;;;4.43;2.40;;;22.00;99.90;;;;;;2074705;28;20022;-70
2022/08/03 05:25:25;;;;;;;3.05;2.22;;;22.10;99.90;;;;;;2073621;28;20033;-70
2022/08/03 05:26:25;;;;;;;2.80;2.20;;;22.20;99.90;;;;;;2072714;28;20021;-70
2022/08/03 05:27:26;;;;;;;5.40;2.60;;;22.30;99.90;;;;;;2073069;28;20014;-70
2022/08/03 05:28:26;;;;;;;5.05;2.50;;;22.50;99.90;;;;;;2072272;28;20033;-70
2022/08/03 05:29:27;;;;;;;3.58;2.25;;;22.60;99.90;;;;;;2075706;28;20022;-70
2022/08/03 05:30:28;;;;;;;3.70;2.10;;;22.60;99.90;;;;;;2074532;28;20017;-70
2022/08/03 05:31:29;;;;;;;3.15;2.63;;;22.70;99.90;;;;;;2073553;28;20359;-71
2022/08/03 05:32:29;;;;;;;2.40;2.20;;;22.80;99.90;;;;;;2073927;28;20465;-71
2022/08/03 05:33:30;;;;;;;4.75;2.03;;;23.00;99.90;;;;;;2071847;28;20101;-71
2022/08/03 05:34:30;;;;;;;3.78;2.22;;;23.10;99.90;;;;;;2074539;28;20359;-71
2022/08/03 05:35:33;;;;;;;4.72;2.33;;;23.20;99.90;;;;;;2073318;28;20481;-71